Terminal Aerodrome Forecast
Issued by NWS

Home | Current Version | Previous Version | Graphics & Text | Print | Product List | Glossary On
Versions: 1 2 3 4 5 6 7 8 9 10 11 12 13 14 15 16 17 18 19 20 21 22
892
FTUS43 KABR 151726
TAFMBG
TAF
KMBG 151726Z 1518/1618 32015G25KT P6SM FEW026
     FM152100 35008KT P6SM FEW250
     FM152300 04007KT P6SM FEW250
     FM160600 12012KT P6SM SCT250
     FM161200 13019G26KT P6SM BKN200=

USA.gov is the U.S. government's official web portal to all federal, state and local government web resources and services.